Time;durP1;ratioP1;P1;durP2;ratioP2;P2;SDS_P1;SDS_P2;PMS_P1;PMS_P2;Temp;Humidity;BMP_temperature;BMP_pressure;BME280_temperature;BME280_humidity;BME280_pressure;Samples;Min_cycle;Max_cycle;Signal;HPM_P1;HPM_P2
2022/08/14 00:00:24;;;;;;;137.70;65.68;;;;;;;;;;7313601;19;162226;-14
2022/08/14 00:02:55;;;;;;;132.45;65.97;;;;;;;;;;7310814;19;162728;-14
2022/08/14 00:05:29;;;;;;;131.35;64.95;;;;;;;;;;7313385;19;154433;-14
2022/08/14 00:08:00;;;;;;;131.90;63.33;;;;;;;;;;7313545;19;154259;-14
2022/08/14 00:10:32;;;;;;;140.25;68.55;;;;;;;;;;7313000;19;162614;-15
2022/08/14 00:13:03;;;;;;;129.85;65.63;;;;;;;;;;7313232;19;162665;-14
2022/08/14 00:15:37;;;;;;;132.00;63.75;;;;;;;;;;7312316;19;154917;-14
2022/08/14 00:18:11;;;;;;;124.40;63.83;;;;;;;;;;7313038;19;153735;-14
2022/08/14 00:20:45;;;;;;;130.90;63.67;;;;;;;;;;7312714;19;162787;-14
2022/08/14 00:23:18;;;;;;;119.40;60.05;;;;;;;;;;7312611;19;162843;-15
2022/08/14 00:25:51;;;;;;;125.20;62.38;;;;;;;;;;7312321;19;154500;-15
2022/08/14 00:28:25;;;;;;;128.02;63.42;;;;;;;;;;7309494;19;154166;-14
2022/08/14 00:30:58;;;;;;;125.82;61.28;;;;;;;;;;7311365;19;161714;-14
2022/08/14 00:33:30;;;;;;;122.70;59.58;;;;;;;;;;7312348;19;163354;-14
2022/08/14 00:36:04;;;;;;;127.18;62.70;;;;;;;;;;7312812;19;154374;-14
2022/08/14 00:38:36;;;;;;;121.30;59.80;;;;;;;;;;7312581;19;154535;-14
2022/08/14 00:41:09;;;;;;;56.38;29.42;;;;;;;;;;7312085;19;162461;-14
2022/08/14 00:43:40;;;;;;;106.55;54.17;;;;;;;;;;7312463;19;163329;-14
2022/08/14 00:46:13;;;;;;;103.07;50.70;;;;;;;;;;7310561;19;154543;-14
2022/08/14 00:48:44;;;;;;;99.03;49.53;;;;;;;;;;7312394;19;154166;-14
2022/08/14 00:51:18;;;;;;;105.13;50.72;;;;;;;;;;7311951;19;162240;-14
2022/08/14 00:53:50;;;;;;;108.40;48.42;;;;;;;;;;7311683;19;162750;-13
2022/08/14 00:56:21;;;;;;;97.23;47.87;;;;;;;;;;7311955;19;154307;-14
2022/08/14 00:58:53;;;;;;;98.88;46.95;;;;;;;;;;7311988;19;154476;-14
2022/08/14 01:01:24;;;;;;;88.20;46.37;;;;;;;;;;7311486;19;162363;-14
2022/08/14 01:03:56;;;;;;;90.78;44.85;;;;;;;;;;7311143;19;162780;-15
2022/08/14 01:06:31;;;;;;;92.38;44.58;;;;;;;;;;7311561;19;154357;-14
2022/08/14 01:09:03;;;;;;;86.20;43.53;;;;;;;;;;7311840;19;154130;-15
2022/08/14 01:11:35;;;;;;;90.25;43.03;;;;;;;;;;7310759;19;162736;-14
2022/08/14 01:14:07;;;;;;;80.15;41.67;;;;;;;;;;7309181;19;163464;-14
2022/08/14 01:16:38;;;;;;;88.57;41.85;;;;;;;;;;7306100;19;154414;-15
2022/08/14 01:21:55;;;;;;;87.60;40.35;;;;;;;;;;7302973;19;162496;-15
2022/08/14 01:24:27;;;;;;;75.60;39.28;;;;;;;;;;7308677;19;162857;-14
2022/08/14 01:26:58;;;;;;;83.25;42.17;;;;;;;;;;7310147;19;154349;-14
2022/08/14 01:29:34;;;;;;;82.93;43.70;;;;;;;;;;7311297;19;154012;-15
2022/08/14 01:32:06;;;;;;;76.53;40.30;;;;;;;;;;7311096;19;162167;-13
2022/08/14 01:34:38;;;;;;;84.50;44.78;;;;;;;;;;7304865;19;163287;-14
2022/08/14 01:37:12;;;;;;;77.88;41.22;;;;;;;;;;7304870;19;154416;-14
2022/08/14 01:39:43;;;;;;;84.97;42.72;;;;;;;;;;7309359;19;154130;-14
2022/08/14 01:42:15;;;;;;;76.07;41.17;;;;;;;;;;7312211;19;163710;-15
2022/08/14 01:44:57;;;;;;;73.50;40.80;;;;;;;;;;7317546;19;163217;-14
2022/08/14 01:47:30;;;;;;;83.97;42.85;;;;;;;;;;7312544;19;157604;-14
2022/08/14 01:50:01;;;;;;;82.72;42.20;;;;;;;;;;7315156;19;153856;-14
2022/08/14 01:52:37;;;;;;;80.07;41.85;;;;;;;;;;7314444;19;162313;-14
2022/08/14 01:55:12;;;;;;;82.97;40.25;;;;;;;;;;7311182;19;163835;-15
2022/08/14 01:57:45;;;;;;;76.55;41.40;;;;;;;;;;7313516;19;155125;-14
2022/08/14 02:00:17;;;;;;;77.82;40.72;;;;;;;;;;7310906;19;154268;-14
2022/08/14 02:02:48;;;;;;;75.17;40.07;;;;;;;;;;7314340;19;162158;-14
2022/08/14 02:05:20;;;;;;;81.90;40.38;;;;;;;;;;7315919;19;162726;-14
2022/08/14 02:07:54;;;;;;;72.50;39.83;;;;;;;;;;7316889;19;154460;-14
2022/08/14 02:10:27;;;;;;;73.30;37.75;;;;;;;;;;7316899;19;153876;-14
2022/08/14 02:12:59;;;;;;;79.78;39.97;;;;;;;;;;7316308;19;162239;-14
2022/08/14 02:15:30;;;;;;;79.18;40.20;;;;;;;;;;7314820;19;163496;-14
2022/08/14 02:18:03;;;;;;;77.38;39.83;;;;;;;;;;7316618;19;154420;-14
2022/08/14 02:20:35;;;;;;;74.88;39.08;;;;;;;;;;7316536;19;154734;-15
2022/08/14 02:23:09;;;;;;;78.38;40.13;;;;;;;;;;7315127;19;162552;-15
2022/08/14 02:25:40;;;;;;;78.97;42.80;;;;;;;;;;7316319;19;163338;-14
2022/08/14 02:28:11;;;;;;;72.25;40.40;;;;;;;;;;7314290;19;154401;-14
2022/08/14 02:30:43;;;;;;;76.05;40.10;;;;;;;;;;7316388;19;154693;-14
2022/08/14 02:33:14;;;;;;;76.10;41.50;;;;;;;;;;7316022;19;162672;-14
2022/08/14 02:35:46;;;;;;;69.20;38.63;;;;;;;;;;7315643;19;162903;-14
2022/08/14 02:38:20;;;;;;;74.53;39.67;;;;;;;;;;7316196;19;154831;-15
2022/08/14 02:40:51;;;;;;;67.80;38.00;;;;;;;;;;7316194;19;154089;-14
2022/08/14 02:43:23;;;;;;;78.28;40.10;;;;;;;;;;7314238;19;162216;-14
2022/08/14 02:45:54;;;;;;;69.57;38.10;;;;;;;;;;7315937;19;163286;-15
2022/08/14 02:48:35;;;;;;;73.43;38.83;;;;;;;;;;7316217;19;154125;-15
2022/08/14 02:51:12;;;;;;;77.22;37.95;;;;;;;;;;7315041;19;154108;-14
2022/08/14 02:53:48;;;;;;;75.38;39.88;;;;;;;;;;7315532;19;162236;-14
2022/08/14 02:56:20;;;;;;;68.60;37.08;;;;;;;;;;7313495;19;162952;-14
2022/08/14 02:58:52;;;;;;;;;;;;;;;;;;7316208;19;154396;-14
2022/08/14 03:01:27;;;;;;;67.70;35.40;;;;;;;;;;7315671;19;153991;-14
2022/08/14 03:03:58;;;;;;;66.38;35.35;;;;;;;;;;7313772;19;162244;-15
2022/08/14 03:06:29;;;;;;;69.05;36.03;;;;;;;;;;7315024;19;162872;-21
2022/08/14 03:09:03;;;;;;;68.90;35.30;;;;;;;;;;7315143;19;154403;-14
2022/08/14 03:11:34;;;;;;;68.68;38.28;;;;;;;;;;7313018;19;154178;-14
2022/08/14 03:14:06;;;;;;;63.10;35.92;;;;;;;;;;7314530;19;162345;-14
2022/08/14 03:16:37;;;;;;;70.97;38.47;;;;;;;;;;7314806;19;162806;-14
2022/08/14 03:19:10;;;;;;;71.30;38.97;;;;;;;;;;7315165;19;154877;-15
2022/08/14 03:21:42;;;;;;;72.20;38.08;;;;;;;;;;7314716;19;154752;-14
2022/08/14 03:24:17;;;;;;;64.28;36.40;;;;;;;;;;7312997;19;162234;-15
2022/08/14 03:26:51;;;;;;;67.85;36.05;;;;;;;;;;7313711;19;162872;-15
2022/08/14 03:29:22;;;;;;;72.20;37.42;;;;;;;;;;7314705;19;154486;-14
2022/08/14 03:31:53;;;;;;;65.65;36.10;;;;;;;;;;7314473;19;154106;-14
2022/08/14 03:34:25;;;;;;;61.90;33.83;;;;;;;;;;7314739;19;162885;-14
2022/08/14 03:36:57;;;;;;;65.88;33.65;;;;;;;;;;7312546;19;163464;-14
2022/08/14 03:39:30;;;;;;;62.00;34.80;;;;;;;;;;7312990;19;155087;-15
2022/08/14 03:42:02;;;;;;;67.15;35.25;;;;;;;;;;7314132;19;153935;-15
2022/08/14 03:44:34;;;;;;;70.28;34.88;;;;;;;;;;7312249;19;162797;-14
2022/08/14 03:47:06;;;;;;;63.22;34.80;;;;;;;;;;7314128;19;163163;-14
2022/08/14 03:49:38;;;;;;;68.97;34.78;;;;;;;;;;7314186;19;154361;-14
2022/08/14 03:52:09;;;;;;;67.17;35.73;;;;;;;;;;7314179;19;154675;-14
2022/08/14 03:54:45;;;;;;;61.38;36.20;;;;;;;;;;7313515;19;162096;-14
2022/08/14 03:57:16;;;;;;;62.47;34.28;;;;;;;;;;7313676;19;163186;-14
2022/08/14 03:59:48;;;;;;;59.30;33.40;;;;;;;;;;7313702;19;154382;-15
2022/08/14 04:02:21;;;;;;;63.83;34.83;;;;;;;;;;7311341;19;154210;-14
2022/08/14 04:04:52;;;;;;;63.88;35.90;;;;;;;;;;7311491;19;162250;-15
2022/08/14 04:07:24;;;;;;;63.40;35.65;;;;;;;;;;7313044;19;163536;-14
2022/08/14 04:09:57;;;;;;;62.25;34.67;;;;;;;;;;7313604;19;154305;-13
2022/08/14 04:12:29;;;;;;;62.03;34.85;;;;;;;;;;7313337;19;154491;-14
2022/08/14 04:15:00;;;;;;;69.15;35.95;;;;;;;;;;7312864;19;162699;-14
2022/08/14 04:17:32;;;;;;;59.03;30.98;;;;;;;;;;7312896;19;162706;-14
2022/08/14 04:20:06;;;;;;;58.53;32.33;;;;;;;;;;7313377;19;154412;-14
2022/08/14 04:22:42;;;;;;;62.88;34.88;;;;;;;;;;7313547;19;154606;-14
2022/08/14 04:25:16;;;;;;;61.63;33.28;;;;;;;;;;7309247;19;162686;-14
2022/08/14 04:27:47;;;;;;;56.95;32.03;;;;;;;;;;7310864;19;162952;-14
2022/08/14 04:30:18;;;;;;;56.53;33.63;;;;;;;;;;7312640;19;154400;-14
2022/08/14 04:32:50;;;;;;;58.80;32.53;;;;;;;;;;7312547;19;153974;-15
2022/08/14 04:35:21;;;;;;;56.97;32.15;;;;;;;;;;7312573;19;162627;-14
2022/08/14 04:46:11;;;;;;;52.65;31.75;;;;;;;;;;7309458;19;161775;-14
2022/08/14 04:48:40;;;;;;;56.95;32.75;;;;;;;;;;7312066;19;163148;-14
2022/08/14 04:51:15;;;;;;;57.25;32.28;;;;;;;;;;7312488;19;154296;-15
2022/08/14 04:53:48;;;;;;;55.63;31.73;;;;;;;;;;7312619;19;154036;-15
2022/08/14 04:56:24;;;;;;;54.70;33.92;;;;;;;;;;7312018;19;162860;-15
2022/08/14 04:59:00;;;;;;;55.78;31.42;;;;;;;;;;7311916;19;163282;-14
2022/08/14 05:01:31;;;;;;;61.22;33.67;;;;;;;;;;7312060;19;154314;-15
2022/08/14 05:04:03;;;;;;;56.78;31.00;;;;;;;;;;7310343;19;153940;-14
2022/08/14 05:06:34;;;;;;;57.45;32.17;;;;;;;;;;7311592;19;162182;-14
2022/08/14 05:09:06;;;;;;;51.05;28.73;;;;;;;;;;7311511;19;162874;-14
2022/08/14 05:11:39;;;;;;;57.17;32.88;;;;;;;;;;7312305;19;154486;-15
2022/08/14 05:14:11;;;;;;;54.53;31.92;;;;;;;;;;7311031;19;154314;-14
2022/08/14 05:16:42;;;;;;;53.35;30.55;;;;;;;;;;7309636;19;162443;-15
2022/08/14 05:19:14;;;;;;;56.47;30.92;;;;;;;;;;7311017;19;163265;-14
2022/08/14 05:21:45;;;;;;;51.55;30.10;;;;;;;;;;7311490;19;154530;-14
2022/08/14 05:24:16;;;;;;;54.50;31.73;;;;;;;;;;7311351;19;154560;-14
2022/08/14 05:26:50;;;;;;;56.03;31.80;;;;;;;;;;7310303;19;162969;-15
2022/08/14 05:29:22;;;;;;;53.92;31.42;;;;;;;;;;7310826;19;162850;-15
2022/08/14 05:31:55;;;;;;;54.45;31.67;;;;;;;;;;7311092;19;154598;-14
2022/08/14 05:34:28;;;;;;;49.58;28.70;;;;;;;;;;7311043;19;153969;-15
2022/08/14 05:37:00;;;;;;;51.05;28.40;;;;;;;;;;7310420;19;162351;-14
2022/08/14 05:39:32;;;;;;;56.90;30.85;;;;;;;;;;7310694;19;162863;-15
2022/08/14 05:42:07;;;;;;;54.20;29.85;;;;;;;;;;7310657;19;154819;-14
2022/08/14 05:44:38;;;;;;;54.28;29.95;;;;;;;;;;7310547;19;154407;-14
2022/08/14 05:47:10;;;;;;;54.13;28.92;;;;;;;;;;7310382;19;162214;-14
2022/08/14 05:49:41;;;;;;;51.63;30.33;;;;;;;;;;7310003;19;162842;-15
2022/08/14 05:52:12;;;;;;;53.72;31.08;;;;;;;;;;7310379;19;154472;-15
2022/08/14 05:54:44;;;;;;;49.35;29.55;;;;;;;;;;7310153;19;154637;-15
2022/08/14 05:57:17;;;;;;;54.42;29.35;;;;;;;;;;7310044;19;162227;-14
2022/08/14 05:59:49;;;;;;;51.85;29.77;;;;;;;;;;7310110;19;162837;-14
2022/08/14 06:02:20;;;;;;;52.55;29.02;;;;;;;;;;7310398;19;154329;-14
2022/08/14 06:04:51;;;;;;;47.40;27.45;;;;;;;;;;7310117;19;153551;-14
2022/08/14 06:07:22;;;;;;;49.90;29.45;;;;;;;;;;7309568;19;162188;-15
2022/08/14 06:09:54;;;;;;;54.58;30.00;;;;;;;;;;7309909;19;162789;-13
2022/08/14 06:12:29;;;;;;;52.53;28.95;;;;;;;;;;7309816;19;154473;-14
2022/08/14 06:15:01;;;;;;;47.65;26.92;;;;;;;;;;7308539;19;154042;-14
2022/08/14 06:17:33;;;;;;;50.53;28.48;;;;;;;;;;7309346;19;162272;-14
2022/08/14 06:20:05;;;;;;;47.10;29.45;;;;;;;;;;7309441;19;162661;-15
2022/08/14 06:22:39;;;;;;;50.85;28.45;;;;;;;;;;7309601;19;154359;-14
2022/08/14 06:25:12;;;;;;;49.85;27.77;;;;;;;;;;7312603;19;154207;-14
2022/08/14 06:27:48;;;;;;;50.53;27.98;;;;;;;;;;7314647;19;162228;-15
2022/08/14 06:30:21;;;;;;;48.47;26.92;;;;;;;;;;7316160;19;162742;-15
2022/08/14 06:32:53;;;;;;;45.85;28.90;;;;;;;;;;7315991;19;154363;-15
2022/08/14 06:35:25;;;;;;;47.28;28.23;;;;;;;;;;7316135;19;154005;-15
2022/08/14 06:37:58;;;;;;;46.67;28.13;;;;;;;;;;7314439;19;162664;-14
2022/08/14 06:40:32;;;;;;;46.92;28.10;;;;;;;;;;7315476;19;163210;-15
2022/08/14 06:43:08;;;;;;;47.95;28.25;;;;;;;;;;7316050;19;154402;-15
2022/08/14 06:45:42;;;;;;;48.03;27.98;;;;;;;;;;7315122;19;154465;-15
2022/08/14 06:48:17;;;;;;;52.45;28.25;;;;;;;;;;7313982;19;163102;-15
2022/08/14 06:50:49;;;;;;;47.70;28.70;;;;;;;;;;7315457;19;163209;-15
2022/08/14 06:53:21;;;;;;;46.35;27.30;;;;;;;;;;7315881;19;154440;-15
2022/08/14 06:55:52;;;;;;;47.63;28.53;;;;;;;;;;7315846;19;154348;-15
2022/08/14 06:58:26;;;;;;;46.53;27.88;;;;;;;;;;7314991;19;162344;-15
2022/08/14 07:06:24;;;;;;;44.95;26.00;;;;;;;;;;7314101;19;154027;-15
2022/08/14 07:08:55;;;;;;;44.17;25.90;;;;;;;;;;7314267;19;162298;-15
2022/08/14 07:11:27;;;;;;;36.80;23.55;;;;;;;;;;7314727;19;163334;-15
2022/08/14 07:14:01;;;;;;;36.22;18.08;;;;;;;;;;7314120;19;154554;-15
2022/08/14 07:16:32;;;;;;;26.40;15.52;;;;;;;;;;7312564;19;154049;-15
2022/08/14 07:19:04;;;;;;;22.08;13.23;;;;;;;;;;7314544;19;162181;-15
2022/08/14 07:21:35;;;;;;;18.00;11.37;;;;;;;;;;7314761;19;163413;-15
2022/08/14 07:24:07;;;;;;;20.25;10.85;;;;;;;;;;7314912;19;155040;-15
2022/08/14 07:26:38;;;;;;;16.50;9.30;;;;;;;;;;7313421;19;154573;-15
2022/08/14 07:29:12;;;;;;;19.05;9.05;;;;;;;;;;7314372;19;162392;-15
2022/08/14 07:31:55;;;;;;;18.27;8.93;;;;;;;;;;7313866;19;162797;-15
2022/08/14 07:34:26;;;;;;;15.60;9.25;;;;;;;;;;7314135;19;154412;-14
2022/08/14 07:36:58;;;;;;;17.15;8.30;;;;;;;;;;7314398;19;154031;-15
2022/08/14 07:39:29;;;;;;;11.60;6.93;;;;;;;;;;7313849;19;162635;-15
2022/08/14 07:42:00;;;;;;;13.90;7.82;;;;;;;;;;7313937;19;163001;-14
2022/08/14 07:44:34;;;;;;;12.15;6.85;;;;;;;;;;7314553;19;154874;-14
2022/08/14 07:47:05;;;;;;;12.32;6.75;;;;;;;;;;7312636;19;154369;-15
2022/08/14 07:49:37;;;;;;;12.52;6.65;;;;;;;;;;7312637;19;162346;-15
2022/08/14 07:52:09;;;;;;;15.23;5.97;;;;;;;;;;7312929;19;163229;-15
2022/08/14 07:54:54;;;;;;;16.08;7.13;;;;;;;;;;7314063;19;154730;-15
2022/08/14 07:57:27;;;;;;;9.98;6.75;;;;;;;;;;7313713;19;153956;-15
2022/08/14 08:00:04;;;;;;;11.77;6.65;;;;;;;;;;7312987;19;162230;-15
2022/08/14 08:02:43;;;;;;;13.45;6.35;;;;;;;;;;7313276;19;162853;-14
2022/08/14 08:05:20;;;;;;;15.00;6.88;;;;;;;;;;7313999;19;154412;-15
2022/08/14 08:07:52;;;;;;;19.05;7.07;;;;;;;;;;7311460;19;154000;-14
2022/08/14 08:10:37;;;;;;;29.30;10.57;;;;;;;;;;7313206;19;162172;-14
2022/08/14 08:13:11;;;;;;;38.78;12.65;;;;;;;;;;7312848;19;163319;-14
2022/08/14 08:15:47;;;;;;;28.13;10.95;;;;;;;;;;7313323;19;154461;-14
2022/08/14 08:18:19;;;;;;;24.15;9.32;;;;;;;;;;7312900;19;154390;-14
2022/08/14 08:20:52;;;;;;;35.77;11.63;;;;;;;;;;7312913;19;162684;-14
2022/08/14 08:23:27;;;;;;;28.63;10.25;;;;;;;;;;7312768;19;163427;-14
2022/08/14 08:25:59;;;;;;;29.35;10.23;;;;;;;;;;7312936;19;154722;-14
2022/08/14 08:28:30;;;;;;;41.88;13.73;;;;;;;;;;7310317;19;154105;-14
2022/08/14 08:31:06;;;;;;;46.22;14.32;;;;;;;;;;7312451;19;162183;-14
2022/08/14 08:33:38;;;;;;;52.05;13.57;;;;;;;;;;7312410;19;162899;-14
2022/08/14 08:36:12;;;;;;;60.63;18.60;;;;;;;;;;7311294;19;154759;-14
2022/08/14 08:38:43;;;;;;;40.17;13.02;;;;;;;;;;7313506;19;154072;-15
2022/08/14 08:41:14;;;;;;;41.75;14.15;;;;;;;;;;7310012;19;162795;-14
2022/08/14 08:43:46;;;;;;;45.22;13.43;;;;;;;;;;7311252;19;163122;-15
2022/08/14 08:46:22;;;;;;;24.52;10.43;;;;;;;;;;7312567;19;154495;-14
2022/08/14 08:48:55;;;;;;;24.33;9.45;;;;;;;;;;7307783;19;154196;-14
2022/08/14 08:51:29;;;;;;;21.40;8.50;;;;;;;;;;7312809;19;162300;-14
2022/08/14 08:54:02;;;;;;;16.75;7.82;;;;;;;;;;7311539;19;162885;-16
2022/08/14 08:56:38;;;;;;;12.43;7.30;;;;;;;;;;7312358;19;154432;-15
2022/08/14 08:59:25;;;;;;;16.88;7.80;;;;;;;;;;7311161;19;154591;-14
2022/08/14 09:02:00;;;;;;;18.50;7.18;;;;;;;;;;7311040;19;162155;-14
2022/08/14 09:04:36;;;;;;;12.55;6.78;;;;;;;;;;7308340;19;163167;-14
2022/08/14 09:07:08;;;;;;;14.32;6.38;;;;;;;;;;7308038;19;154467;-14
2022/08/14 09:09:50;;;;;;;12.82;6.85;;;;;;;;;;7311777;19;153575;-14
2022/08/14 09:12:21;;;;;;;15.07;6.55;;;;;;;;;;7311471;19;162641;-14
2022/08/14 09:14:53;;;;;;;13.02;6.43;;;;;;;;;;7311179;19;163274;-15
2022/08/14 09:17:27;;;;;;;9.90;7.50;;;;;;;;;;7311534;19;154816;-14
2022/08/14 09:19:59;;;;;;;11.20;6.75;;;;;;;;;;7311250;19;153972;-14
2022/08/14 09:22:30;;;;;;;13.20;7.13;;;;;;;;;;7311467;19;162622;-14
2022/08/14 09:25:02;;;;;;;15.30;7.32;;;;;;;;;;7309733;19;162859;-14
2022/08/14 09:27:33;;;;;;;13.33;6.73;;;;;;;;;;7308273;19;155019;-14
2022/08/14 09:30:08;;;;;;;14.77;7.03;;;;;;;;;;7311283;19;153880;-15
2022/08/14 09:32:54;;;;;;;11.88;6.65;;;;;;;;;;7310735;19;162245;-15
2022/08/14 09:35:34;;;;;;;12.60;6.85;;;;;;;;;;7310881;19;162913;-14
2022/08/14 09:38:12;;;;;;;13.00;7.35;;;;;;;;;;7311372;19;154760;-14
2022/08/14 09:40:52;;;;;;;11.95;7.15;;;;;;;;;;7310918;19;153971;-14
2022/08/14 09:43:31;;;;;;;14.43;7.40;;;;;;;;;;7310786;19;162191;-14
2022/08/14 09:46:09;;;;;;;12.48;7.00;;;;;;;;;;7310457;19;162859;-14
2022/08/14 09:48:42;;;;;;;12.57;8.35;;;;;;;;;;7307449;19;154764;-14
2022/08/14 09:51:24;;;;;;;12.75;7.45;;;;;;;;;;7310633;19;154621;-15
2022/08/14 09:54:05;;;;;;;15.30;8.02;;;;;;;;;;7310173;19;162654;-15
2022/08/14 09:56:47;;;;;;;12.05;7.57;;;;;;;;;;7310010;19;162794;-14
2022/08/14 09:59:23;;;;;;;12.48;8.13;;;;;;;;;;7311061;19;154395;-14
2022/08/14 10:01:55;;;;;;;14.93;8.07;;;;;;;;;;7317328;19;153970;-14
2022/08/14 10:04:30;;;;;;;15.27;8.10;;;;;;;;;;7317039;19;162679;-15
2022/08/14 10:07:01;;;;;;;16.33;8.27;;;;;;;;;;7316695;19;163166;-14
2022/08/14 10:09:32;;;;;;;11.15;8.05;;;;;;;;;;7315042;19;154565;-14
2022/08/14 10:12:05;;;;;;;16.75;7.70;;;;;;;;;;7316957;19;153918;-14
2022/08/14 10:14:37;;;;;;;13.88;7.95;;;;;;;;;;7316687;19;162737;-14
2022/08/14 10:17:09;;;;;;;11.00;8.23;;;;;;;;;;7316684;19;163285;-14
2022/08/14 10:19:51;;;;;;;13.63;8.57;;;;;;;;;;7317272;19;154938;-14
2022/08/14 10:22:32;;;;;;;12.50;7.95;;;;;;;;;;7316679;19;154092;-15
2022/08/14 10:25:13;;;;;;;13.45;8.55;;;;;;;;;;7316803;19;162778;-14
2022/08/14 10:27:45;;;;;;;14.05;7.55;;;;;;;;;;7314715;19;162783;-14
2022/08/14 10:30:19;;;;;;;14.23;8.95;;;;;;;;;;7316552;19;154515;-15
2022/08/14 10:32:50;;;;;;;14.50;8.27;;;;;;;;;;7314622;19;154618;-14
2022/08/14 10:35:24;;;;;;;12.77;8.20;;;;;;;;;;7316019;19;162620;-15
2022/08/14 10:37:56;;;;;;;11.57;8.00;;;;;;;;;;7315731;19;162791;-15
2022/08/14 10:40:29;;;;;;;13.57;8.57;;;;;;;;;;7316207;19;154650;-14
2022/08/14 10:43:01;;;;;;;15.35;9.13;;;;;;;;;;7315815;19;154061;-13
2022/08/14 10:45:34;;;;;;;14.27;8.13;;;;;;;;;;7315787;19;161704;-14
2022/08/14 10:48:16;;;;;;;14.88;9.00;;;;;;;;;;7314995;19;162930;-13
2022/08/14 10:50:52;;;;;;;16.48;9.45;;;;;;;;;;7315730;19;154811;-13
2022/08/14 10:53:31;;;;;;;14.88;9.13;;;;;;;;;;7315502;19;153996;-14
2022/08/14 10:56:05;;;;;;;17.02;8.82;;;;;;;;;;7314696;19;162310;-14
2022/08/14 10:58:37;;;;;;;16.05;8.90;;;;;;;;;;7315089;19;162855;-14
2022/08/14 11:01:09;;;;;;;12.20;7.93;;;;;;;;;;7315791;19;154812;-13
2022/08/14 11:03:42;;;;;;;12.45;8.02;;;;;;;;;;7315714;19;154068;-14
2022/08/14 11:06:22;;;;;;;13.60;8.05;;;;;;;;;;7314857;19;162195;-13
2022/08/14 11:08:54;;;;;;;13.43;7.65;;;;;;;;;;7314330;19;163916;-13
2022/08/14 11:11:26;;;;;;;11.80;7.07;;;;;;;;;;7314606;19;154427;-13
2022/08/14 11:13:58;;;;;;;;;;;;;;;;;;7314464;19;154029;-15
2022/08/14 11:16:30;;;;;;;11.48;6.97;;;;;;;;;;7314849;19;162442;-14
2022/08/14 11:19:06;;;;;;;11.63;7.17;;;;;;;;;;7315024;19;163159;-14
2022/08/14 11:21:43;;;;;;;10.32;6.82;;;;;;;;;;7315393;19;154351;-15
2022/08/14 11:24:17;;;;;;;11.80;6.25;;;;;;;;;;7315084;19;154247;-14
2022/08/14 11:26:49;;;;;;;13.98;6.95;;;;;;;;;;7312173;19;162249;-14
2022/08/14 11:29:23;;;;;;;9.95;6.40;;;;;;;;;;7313234;19;163703;-13
2022/08/14 11:31:56;;;;;;;9.90;5.97;;;;;;;;;;7314755;19;154359;-14
2022/08/14 11:34:27;;;;;;;11.35;6.32;;;;;;;;;;7314721;19;154012;-14
2022/08/14 11:37:10;;;;;;;9.73;6.40;;;;;;;;;;7312688;19;162395;-14
2022/08/14 11:39:41;;;;;;;;;;;;;;;;;;7314800;19;163013;-14
2022/08/14 11:42:22;;;;;;;11.05;6.75;;;;;;;;;;7314893;19;155146;-14
2022/08/14 11:44:54;;;;;;;11.80;6.25;;;;;;;;;;7314436;19;154335;-14
2022/08/14 11:47:25;;;;;;;9.27;6.40;;;;;;;;;;7313867;19;162693;-14
2022/08/14 11:49:57;;;;;;;8.95;5.93;;;;;;;;;;7311970;19;163262;-13
2022/08/14 11:52:38;;;;;;;11.45;6.47;;;;;;;;;;7312779;19;155194;-14
2022/08/14 11:55:12;;;;;;;7.60;5.85;;;;;;;;;;7314639;19;153473;-14
2022/08/14 11:57:45;;;;;;;10.52;6.07;;;;;;;;;;7313622;19;161799;-16
2022/08/14 12:00:18;;;;;;;8.13;6.00;;;;;;;;;;7313545;19;163635;-15
2022/08/14 12:02:54;;;;;;;7.85;5.43;;;;;;;;;;7314158;19;154419;-15
2022/08/14 12:05:33;;;;;;;11.05;6.03;;;;;;;;;;7313861;19;153993;-15
2022/08/14 12:08:08;;;;;;;8.85;6.10;;;;;;;;;;7311918;19;162703;-15
2022/08/14 12:10:42;;;;;;;10.07;5.40;;;;;;;;;;7309484;19;163216;-15
2022/08/14 12:13:15;;;;;;;8.88;6.05;;;;;;;;;;7313474;19;155128;-16
2022/08/14 12:15:59;;;;;;;11.68;6.15;;;;;;;;;;7313854;19;154773;-16
2022/08/14 12:18:33;;;;;;;9.23;5.85;;;;;;;;;;7313116;19;162198;-15
2022/08/14 12:21:15;;;;;;;12.05;6.07;;;;;;;;;;7311300;19;162796;-15
2022/08/14 12:24:06;;;;;;;8.38;5.95;;;;;;;;;;7311241;19;153870;-16
2022/08/14 12:26:40;;;;;;;9.50;6.20;;;;;;;;;;7312655;19;153973;-15
2022/08/14 12:29:16;;;;;;;8.30;5.63;;;;;;;;;;7312379;19;162405;-15
2022/08/14 12:31:59;;;;;;;8.27;5.38;;;;;;;;;;7312676;19;162838;-16
2022/08/14 12:34:33;;;;;;;8.10;5.63;;;;;;;;;;7312933;19;154534;-16
2022/08/14 12:37:08;;;;;;;7.32;5.10;;;;;;;;;;7310656;19;153963;-16
2022/08/14 12:39:43;;;;;;;7.25;5.00;;;;;;;;;;7312194;19;162609;-15
2022/08/14 12:42:15;;;;;;;8.52;5.40;;;;;;;;;;7312212;19;162797;-16
2022/08/14 12:44:50;;;;;;;7.90;5.30;;;;;;;;;;7312853;19;154446;-15
2022/08/14 12:47:30;;;;;;;9.38;5.13;;;;;;;;;;7312408;19;154002;-14
2022/08/14 12:50:02;;;;;;;7.25;5.07;;;;;;;;;;7311040;19;162735;-15
2022/08/14 12:52:35;;;;;;;10.18;5.15;;;;;;;;;;7312288;19;163375;-16
2022/08/14 12:55:12;;;;;;;8.07;4.78;;;;;;;;;;7310982;19;154413;-15
2022/08/14 12:57:45;;;;;;;7.93;4.63;;;;;;;;;;7310600;19;153990;-15
2022/08/14 13:00:22;;;;;;;8.32;5.63;;;;;;;;;;7312283;19;162271;-14
2022/08/14 13:02:57;;;;;;;9.10;5.07;;;;;;;;;;7309868;19;162889;-15
2022/08/14 13:05:30;;;;;;;7.05;4.53;;;;;;;;;;7312209;19;154421;-13
2022/08/14 13:08:05;;;;;;;7.05;5.45;;;;;;;;;;7312295;19;153925;-13
2022/08/14 13:10:39;;;;;;;8.20;4.97;;;;;;;;;;7310353;19;162647;-14
2022/08/14 13:13:12;;;;;;;7.68;5.03;;;;;;;;;;7311360;19;163323;-14
2022/08/14 13:15:45;;;;;;;6.13;5.00;;;;;;;;;;7311936;19;154427;-14
2022/08/14 13:18:17;;;;;;;7.68;5.05;;;;;;;;;;7310194;19;154026;-14
2022/08/14 13:20:49;;;;;;;7.07;4.32;;;;;;;;;;7311797;19;162213;-14
2022/08/14 13:23:21;;;;;;;;;;;;;;;;;;7310901;19;162848;-13
2022/08/14 13:25:56;;;;;;;6.95;3.95;;;;;;;;;;7311463;19;154564;-13
2022/08/14 13:28:28;;;;;;;6.03;4.63;;;;;;;;;;7308708;19;153987;-13
2022/08/14 13:31:03;;;;;;;6.82;4.43;;;;;;;;;;7309381;19;162283;-14
2022/08/14 13:33:37;;;;;;;5.18;3.80;;;;;;;;;;7312557;19;162766;-14
2022/08/14 13:36:09;;;;;;;5.35;4.05;;;;;;;;;;7317915;19;154439;-14
2022/08/14 13:38:43;;;;;;;4.75;3.78;;;;;;;;;;7318107;19;154418;-13
2022/08/14 13:41:22;;;;;;;5.00;4.03;;;;;;;;;;7317588;19;162677;-14
2022/08/14 13:43:57;;;;;;;5.93;3.90;;;;;;;;;;7317454;19;162743;-14
2022/08/14 13:46:29;;;;;;;6.47;4.05;;;;;;;;;;7317569;19;154485;-13
2022/08/14 13:49:01;;;;;;;5.35;3.70;;;;;;;;;;7316201;19;154085;-15
2022/08/14 13:51:39;;;;;;;5.63;4.40;;;;;;;;;;7315662;19;162667;-14
2022/08/14 13:54:10;;;;;;;11.02;3.97;;;;;;;;;;7317074;19;163317;-14
2022/08/14 13:56:44;;;;;;;6.40;4.60;;;;;;;;;;7317530;19;154363;-14
2022/08/14 13:59:16;;;;;;;6.50;4.05;;;;;;;;;;7317325;19;154349;-14
2022/08/14 14:01:48;;;;;;;5.80;3.90;;;;;;;;;;7317120;19;162294;-14
2022/08/14 14:04:19;;;;;;;5.78;4.68;;;;;;;;;;7316870;19;162809;-14
2022/08/14 14:06:52;;;;;;;6.63;4.87;;;;;;;;;;7317454;19;154986;-14
2022/08/14 14:09:28;;;;;;;6.05;4.45;;;;;;;;;;7317176;19;153954;-14
2022/08/14 14:12:03;;;;;;;6.35;4.10;;;;;;;;;;7314953;19;162268;-14
2022/08/14 14:14:34;;;;;;;6.55;4.00;;;;;;;;;;7316535;19;163245;-15
2022/08/14 14:17:05;;;;;;;6.35;3.97;;;;;;;;;;7316767;19;154565;-15
2022/08/14 14:19:40;;;;;;;5.07;3.78;;;;;;;;;;7316645;19;153909;-14
2022/08/14 14:22:12;;;;;;;8.05;4.55;;;;;;;;;;7316518;19;162253;-14
2022/08/14 14:24:43;;;;;;;4.50;4.10;;;;;;;;;;7314927;19;163307;-14
2022/08/14 14:27:19;;;;;;;6.37;4.27;;;;;;;;;;7315934;19;154389;-14
2022/08/14 14:30:12;;;;;;;7.63;4.00;;;;;;;;;;7314577;19;154096;-15
2022/08/14 14:32:45;;;;;;;5.32;4.30;;;;;;;;;;7313561;19;162708;-14
2022/08/14 14:35:18;;;;;;;4.90;4.15;;;;;;;;;;7314207;19;162932;-14
2022/08/14 14:37:50;;;;;;;8.15;4.55;;;;;;;;;;7316210;19;154570;-14
2022/08/14 14:40:21;;;;;;;9.33;4.63;;;;;;;;;;7316355;19;154013;-15
2022/08/14 14:42:55;;;;;;;6.93;4.57;;;;;;;;;;7315506;19;162266;-14
2022/08/14 14:45:28;;;;;;;5.88;4.18;;;;;;;;;;7312757;19;162950;-14
2022/08/14 14:48:00;;;;;;;6.88;4.18;;;;;;;;;;7315982;19;154451;-15
2022/08/14 14:50:31;;;;;;;6.57;4.15;;;;;;;;;;7316028;19;154328;-14
2022/08/14 14:53:03;;;;;;;9.77;4.63;;;;;;;;;;7315530;19;162750;-14
2022/08/14 14:55:36;;;;;;;6.50;4.47;;;;;;;;;;7315223;19;162904;-14
2022/08/14 14:58:11;;;;;;;7.38;5.03;;;;;;;;;;7315040;19;154400;-13
2022/08/14 15:00:44;;;;;;;7.78;4.50;;;;;;;;;;7314735;19;154015;-15
2022/08/14 15:03:15;;;;;;;10.23;4.40;;;;;;;;;;7312091;19;162630;-14
2022/08/14 15:05:47;;;;;;;10.93;4.05;;;;;;;;;;7311751;19;162757;-14